sensor_id;sensor_type;location;lat;lon;timestamp;temperature;humidity
62912;DHT22;49111;51.028;4.218;2022-09-21T00:01:10;10.90;99.90
62912;DHT22;49111;51.028;4.218;2022-09-21T00:03:37;10.90;99.90
62912;DHT22;49111;51.028;4.218;2022-09-21T00:06:05;10.90;99.90
62912;DHT22;49111;51.028;4.218;2022-09-21T00:08:31;10.90;99.90
62912;DHT22;49111;51.028;4.218;2022-09-21T00:10:57;10.90;99.90
62912;DHT22;49111;51.028;4.218;2022-09-21T00:13:25;10.80;99.90
62912;DHT22;49111;51.028;4.218;2022-09-21T00:15:55;10.80;99.90
62912;DHT22;49111;51.028;4.218;2022-09-21T00:18:22;10.80;99.90
62912;DHT22;49111;51.028;4.218;2022-09-21T00:20:48;10.80;99.90
62912;DHT22;49111;51.028;4.218;2022-09-21T00:23:14;10.80;99.90
62912;DHT22;49111;51.028;4.218;2022-09-21T00:25:40;10.70;99.90
62912;DHT22;49111;51.028;4.218;2022-09-21T00:28:06;10.70;99.90
62912;DHT22;49111;51.028;4.218;2022-09-21T00:30:32;10.70;99.90
62912;DHT22;49111;51.028;4.218;2022-09-21T00:32:58;10.70;99.90
62912;DHT22;49111;51.028;4.218;2022-09-21T00:35:24;10.60;99.90
62912;DHT22;49111;51.028;4.218;2022-09-21T00:37:50;10.60;99.90
62912;DHT22;49111;51.028;4.218;2022-09-21T00:40:16;10.60;99.90
62912;DHT22;49111;51.028;4.218;2022-09-21T00:42:42;10.60;99.90
62912;DHT22;49111;51.028;4.218;2022-09-21T00:45:11;10.60;99.90
62912;DHT22;49111;51.028;4.218;2022-09-21T00:47:47;10.70;99.90
62912;DHT22;49111;51.028;4.218;2022-09-21T00:50:17;10.70;99.90
62912;DHT22;49111;51.028;4.218;2022-09-21T00:52:50;10.60;99.90
62912;DHT22;49111;51.028;4.218;2022-09-21T00:57:59;10.60;99.90
62912;DHT22;49111;51.028;4.218;2022-09-21T01:00:25;10.60;99.90
62912;DHT22;49111;51.028;4.218;2022-09-21T01:02:51;10.60;99.90
62912;DHT22;49111;51.028;4.218;2022-09-21T01:05:19;10.50;99.90
62912;DHT22;49111;51.028;4.218;2022-09-21T01:07:47;10.50;99.90
62912;DHT22;49111;51.028;4.218;2022-09-21T01:10:16;10.50;99.90
62912;DHT22;49111;51.028;4.218;2022-09-21T01:18:45;10.40;99.90
62912;DHT22;49111;51.028;4.218;2022-09-21T01:21:30;10.40;99.90
62912;DHT22;49111;51.028;4.218;2022-09-21T01:32:05;10.30;99.90
62912;DHT22;49111;51.028;4.218;2022-09-21T01:37:12;10.20;99.90
62912;DHT22;49111;51.028;4.218;2022-09-21T01:39:43;10.20;99.90
62912;DHT22;49111;51.028;4.218;2022-09-21T01:42:11;10.20;99.90
62912;DHT22;49111;51.028;4.218;2022-09-21T01:44:39;10.20;99.90
62912;DHT22;49111;51.028;4.218;2022-09-21T01:47:10;10.20;99.90
62912;DHT22;49111;51.028;4.218;2022-09-21T01:49:50;10.20;99.90
62912;DHT22;49111;51.028;4.218;2022-09-21T01:52:32;10.20;99.90
62912;DHT22;49111;51.028;4.218;2022-09-21T01:55:11;10.20;99.90
62912;DHT22;49111;51.028;4.218;2022-09-21T01:58:02;10.20;99.90
62912;DHT22;49111;51.028;4.218;2022-09-21T02:00:32;10.20;99.90
62912;DHT22;49111;51.028;4.218;2022-09-21T02:03:08;10.20;99.90
62912;DHT22;49111;51.028;4.218;2022-09-21T02:05:37;10.10;99.90
62912;DHT22;49111;51.028;4.218;2022-09-21T02:08:05;10.10;99.90
62912;DHT22;49111;51.028;4.218;2022-09-21T02:10:35;10.10;99.90
62912;DHT22;49111;51.028;4.218;2022-09-21T02:13:03;10.10;99.90
62912;DHT22;49111;51.028;4.218;2022-09-21T02:18:37;10.00;99.90
62912;DHT22;49111;51.028;4.218;2022-09-21T02:21:33;10.10;99.90
62912;DHT22;49111;51.028;4.218;2022-09-21T02:27:02;10.00;99.90
62912;DHT22;49111;51.028;4.218;2022-09-21T02:34:46;9.90;99.90
62912;DHT22;49111;51.028;4.218;2022-09-21T02:40:28;9.90;99.90
62912;DHT22;49111;51.028;4.218;2022-09-21T02:43:03;9.90;99.90
62912;DHT22;49111;51.028;4.218;2022-09-21T02:45:43;9.90;99.90
62912;DHT22;49111;51.028;4.218;2022-09-21T02:48:17;9.90;99.90
62912;DHT22;49111;51.028;4.218;2022-09-21T02:50:55;9.90;99.90
62912;DHT22;49111;51.028;4.218;2022-09-21T02:53:28;9.90;99.90
62912;DHT22;49111;51.028;4.218;2022-09-21T02:55:57;9.90;99.90
62912;DHT22;49111;51.028;4.218;2022-09-21T02:58:25;9.90;99.90
62912;DHT22;49111;51.028;4.218;2022-09-21T03:00:54;9.90;99.90
62912;DHT22;49111;51.028;4.218;2022-09-21T03:03:22;9.80;99.90
62912;DHT22;49111;51.028;4.218;2022-09-21T03:05:52;9.80;99.90
62912;DHT22;49111;51.028;4.218;2022-09-21T03:08:18;9.80;99.90
62912;DHT22;49111;51.028;4.218;2022-09-21T03:10:44;9.80;99.90
62912;DHT22;49111;51.028;4.218;2022-09-21T03:13:11;9.80;99.90
62912;DHT22;49111;51.028;4.218;2022-09-21T03:15:38;9.80;99.90
62912;DHT22;49111;51.028;4.218;2022-09-21T03:18:06;9.70;99.90
62912;DHT22;49111;51.028;4.218;2022-09-21T03:20:38;9.80;99.90
62912;DHT22;49111;51.028;4.218;2022-09-21T03:23:04;9.70;99.90
62912;DHT22;49111;51.028;4.218;2022-09-21T03:25:30;9.70;99.90
62912;DHT22;49111;51.028;4.218;2022-09-21T03:27:56;9.70;99.90
62912;DHT22;49111;51.028;4.218;2022-09-21T03:30:23;9.70;99.90
62912;DHT22;49111;51.028;4.218;2022-09-21T03:32:53;9.60;99.90
62912;DHT22;49111;51.028;4.218;2022-09-21T03:35:21;9.70;99.90
62912;DHT22;49111;51.028;4.218;2022-09-21T03:37:48;9.60;99.90
62912;DHT22;49111;51.028;4.218;2022-09-21T03:40:15;9.60;99.90
62912;DHT22;49111;51.028;4.218;2022-09-21T03:42:41;9.60;99.90
62912;DHT22;49111;51.028;4.218;2022-09-21T03:45:09;9.60;99.90
62912;DHT22;49111;51.028;4.218;2022-09-21T03:47:37;9.60;99.90
62912;DHT22;49111;51.028;4.218;2022-09-21T03:50:04;9.60;99.90
62912;DHT22;49111;51.028;4.218;2022-09-21T03:52:30;9.50;99.90
62912;DHT22;49111;51.028;4.218;2022-09-21T03:54:56;9.60;99.90
62912;DHT22;49111;51.028;4.218;2022-09-21T03:57:21;9.60;99.90
62912;DHT22;49111;51.028;4.218;2022-09-21T03:59:47;9.60;99.90
62912;DHT22;49111;51.028;4.218;2022-09-21T04:02:14;9.60;99.90
62912;DHT22;49111;51.028;4.218;2022-09-21T04:04:40;9.50;99.90
62912;DHT22;49111;51.028;4.218;2022-09-21T04:07:06;9.50;99.90
62912;DHT22;49111;51.028;4.218;2022-09-21T04:09:32;9.50;99.90
62912;DHT22;49111;51.028;4.218;2022-09-21T04:11:57;9.50;99.90
62912;DHT22;49111;51.028;4.218;2022-09-21T04:14:23;9.50;99.90
62912;DHT22;49111;51.028;4.218;2022-09-21T04:16:49;9.50;99.90
62912;DHT22;49111;51.028;4.218;2022-09-21T04:19:18;9.50;99.90
62912;DHT22;49111;51.028;4.218;2022-09-21T04:21:44;9.50;99.90
62912;DHT22;49111;51.028;4.218;2022-09-21T04:24:09;9.50;99.90
62912;DHT22;49111;51.028;4.218;2022-09-21T04:26:35;9.50;99.90
62912;DHT22;49111;51.028;4.218;2022-09-21T04:29:02;9.40;99.90
62912;DHT22;49111;51.028;4.218;2022-09-21T04:31:29;9.40;99.90
62912;DHT22;49111;51.028;4.218;2022-09-21T04:33:56;9.50;99.90
62912;DHT22;49111;51.028;4.218;2022-09-21T04:36:23;9.50;99.90
62912;DHT22;49111;51.028;4.218;2022-09-21T04:38:50;9.40;99.90
62912;DHT22;49111;51.028;4.218;2022-09-21T04:41:16;9.40;99.90
62912;DHT22;49111;51.028;4.218;2022-09-21T04:43:47;9.40;99.90
62912;DHT22;49111;51.028;4.218;2022-09-21T04:46:16;9.40;99.90
62912;DHT22;49111;51.028;4.218;2022-09-21T04:48:42;9.40;99.90
62912;DHT22;49111;51.028;4.218;2022-09-21T04:51:09;9.40;99.90
62912;DHT22;49111;51.028;4.218;2022-09-21T04:53:37;9.40;99.90
62912;DHT22;49111;51.028;4.218;2022-09-21T04:56:04;9.40;99.90
62912;DHT22;49111;51.028;4.218;2022-09-21T04:58:31;9.40;99.90
62912;DHT22;49111;51.028;4.218;2022-09-21T05:00:57;9.30;99.90
62912;DHT22;49111;51.028;4.218;2022-09-21T05:03:24;9.30;99.90
62912;DHT22;49111;51.028;4.218;2022-09-21T05:05:51;9.40;99.90
62912;DHT22;49111;51.028;4.218;2022-09-21T05:08:18;9.40;99.90
62912;DHT22;49111;51.028;4.218;2022-09-21T05:11:09;9.50;99.90
62912;DHT22;49111;51.028;4.218;2022-09-21T05:13:35;9.40;99.90
62912;DHT22;49111;51.028;4.218;2022-09-21T05:16:01;9.30;99.90
62912;DHT22;49111;51.028;4.218;2022-09-21T05:18:27;9.20;99.90
62912;DHT22;49111;51.028;4.218;2022-09-21T05:20:57;9.20;99.90
62912;DHT22;49111;51.028;4.218;2022-09-21T05:23:24;9.20;99.90
62912;DHT22;49111;51.028;4.218;2022-09-21T05:25:50;9.20;99.90
62912;DHT22;49111;51.028;4.218;2022-09-21T05:28:17;9.20;99.90
62912;DHT22;49111;51.028;4.218;2022-09-21T05:30:46;9.20;99.90
62912;DHT22;49111;51.028;4.218;2022-09-21T05:33:15;9.20;99.90
62912;DHT22;49111;51.028;4.218;2022-09-21T05:38:35;9.20;99.90
62912;DHT22;49111;51.028;4.218;2022-09-21T05:41:01;9.10;99.90
62912;DHT22;49111;51.028;4.218;2022-09-21T05:43:27;9.10;99.90
62912;DHT22;49111;51.028;4.218;2022-09-21T05:46:02;9.10;99.90
62912;DHT22;49111;51.028;4.218;2022-09-21T05:48:41;9.20;99.90
62912;DHT22;49111;51.028;4.218;2022-09-21T05:51:28;9.10;99.90
62912;DHT22;49111;51.028;4.218;2022-09-21T05:54:12;9.20;99.90
62912;DHT22;49111;51.028;4.218;2022-09-21T05:57:06;9.20;99.90
62912;DHT22;49111;51.028;4.218;2022-09-21T05:59:41;9.20;99.90
62912;DHT22;49111;51.028;4.218;2022-09-21T06:05:34;9.20;99.90
62912;DHT22;49111;51.028;4.218;2022-09-21T06:08:00;9.20;99.90
62912;DHT22;49111;51.028;4.218;2022-09-21T06:10:31;9.20;99.90
62912;DHT22;49111;51.028;4.218;2022-09-21T06:12:58;9.20;99.90
62912;DHT22;49111;51.028;4.218;2022-09-21T06:15:25;9.20;99.90
62912;DHT22;49111;51.028;4.218;2022-09-21T06:17:50;9.30;99.90
62912;DHT22;49111;51.028;4.218;2022-09-21T06:20:16;9.30;99.90
62912;DHT22;49111;51.028;4.218;2022-09-21T06:22:42;9.40;99.90
62912;DHT22;49111;51.028;4.218;2022-09-21T06:25:08;9.40;99.90
62912;DHT22;49111;51.028;4.218;2022-09-21T06:27:34;9.40;99.90
62912;DHT22;49111;51.028;4.218;2022-09-21T06:30:00;9.50;99.90
62912;DHT22;49111;51.028;4.218;2022-09-21T06:32:26;9.50;99.90
62912;DHT22;49111;51.028;4.218;2022-09-21T06:34:52;9.60;99.90
62912;DHT22;49111;51.028;4.218;2022-09-21T06:37:18;9.60;99.90
62912;DHT22;49111;51.028;4.218;2022-09-21T06:39:44;9.60;99.90
62912;DHT22;49111;51.028;4.218;2022-09-21T06:42:10;9.60;99.90
62912;DHT22;49111;51.028;4.218;2022-09-21T06:44:35;9.60;99.90
62912;DHT22;49111;51.028;4.218;2022-09-21T06:47:01;9.60;99.90
62912;DHT22;49111;51.028;4.218;2022-09-21T06:49:27;9.70;99.90
62912;DHT22;49111;51.028;4.218;2022-09-21T06:51:54;9.70;99.90
62912;DHT22;49111;51.028;4.218;2022-09-21T06:54:20;9.80;99.90
62912;DHT22;49111;51.028;4.218;2022-09-21T06:56:46;9.80;99.90
62912;DHT22;49111;51.028;4.218;2022-09-21T06:59:12;9.80;99.90
62912;DHT22;49111;51.028;4.218;2022-09-21T07:01:38;9.90;99.90
62912;DHT22;49111;51.028;4.218;2022-09-21T07:04:04;9.90;99.90
62912;DHT22;49111;51.028;4.218;2022-09-21T07:06:31;9.90;99.90
62912;DHT22;49111;51.028;4.218;2022-09-21T07:08:57;9.90;99.90
62912;DHT22;49111;51.028;4.218;2022-09-21T07:11:23;10.00;99.90
62912;DHT22;49111;51.028;4.218;2022-09-21T07:13:49;10.00;99.90
62912;DHT22;49111;51.028;4.218;2022-09-21T07:16:15;10.10;99.90
62912;DHT22;49111;51.028;4.218;2022-09-21T07:18:41;10.10;99.90
62912;DHT22;49111;51.028;4.218;2022-09-21T07:21:09;10.20;99.90
62912;DHT22;49111;51.028;4.218;2022-09-21T07:23:35;10.20;99.90
62912;DHT22;49111;51.028;4.218;2022-09-21T07:26:04;10.20;99.90
62912;DHT22;49111;51.028;4.218;2022-09-21T07:28:30;10.30;99.90
62912;DHT22;49111;51.028;4.218;2022-09-21T07:30:57;10.40;99.90
62912;DHT22;49111;51.028;4.218;2022-09-21T07:33:24;10.40;99.90
62912;DHT22;49111;51.028;4.218;2022-09-21T07:35:54;10.40;99.90
62912;DHT22;49111;51.028;4.218;2022-09-21T07:38:22;10.50;99.90
62912;DHT22;49111;51.028;4.218;2022-09-21T07:40:49;10.50;99.90
62912;DHT22;49111;51.028;4.218;2022-09-21T07:43:15;10.60;99.90
62912;DHT22;49111;51.028;4.218;2022-09-21T07:45:40;10.60;99.90
62912;DHT22;49111;51.028;4.218;2022-09-21T07:48:07;10.60;99.90
62912;DHT22;49111;51.028;4.218;2022-09-21T07:50:35;10.80;99.90
62912;DHT22;49111;51.028;4.218;2022-09-21T07:53:02;10.80;99.90
62912;DHT22;49111;51.028;4.218;2022-09-21T07:55:28;10.90;99.90
62912;DHT22;49111;51.028;4.218;2022-09-21T07:57:53;11.00;99.90
62912;DHT22;49111;51.028;4.218;2022-09-21T08:00:38;11.10;99.90
62912;DHT22;49111;51.028;4.218;2022-09-21T08:03:04;11.10;99.90
62912;DHT22;49111;51.028;4.218;2022-09-21T08:05:31;11.20;99.90
62912;DHT22;49111;51.028;4.218;2022-09-21T08:07:57;11.30;99.90
62912;DHT22;49111;51.028;4.218;2022-09-21T08:10:23;11.40;99.90
62912;DHT22;49111;51.028;4.218;2022-09-21T08:12:53;11.40;99.90
62912;DHT22;49111;51.028;4.218;2022-09-21T08:15:19;11.50;99.90
62912;DHT22;49111;51.028;4.218;2022-09-21T08:17:45;11.50;99.90
62912;DHT22;49111;51.028;4.218;2022-09-21T08:20:11;11.50;99.90
62912;DHT22;49111;51.028;4.218;2022-09-21T08:22:39;11.60;99.90
62912;DHT22;49111;51.028;4.218;2022-09-21T08:25:05;11.80;99.90
62912;DHT22;49111;51.028;4.218;2022-09-21T08:27:31;11.80;99.90
62912;DHT22;49111;51.028;4.218;2022-09-21T08:29:56;11.90;99.90
62912;DHT22;49111;51.028;4.218;2022-09-21T08:32:22;11.90;99.90
62912;DHT22;49111;51.028;4.218;2022-09-21T08:34:48;12.00;99.90
62912;DHT22;49111;51.028;4.218;2022-09-21T08:37:14;12.00;99.90
62912;DHT22;49111;51.028;4.218;2022-09-21T08:39:41;12.20;99.90
62912;DHT22;49111;51.028;4.218;2022-09-21T08:45:21;12.30;99.90
62912;DHT22;49111;51.028;4.218;2022-09-21T08:47:55;12.40;99.90
62912;DHT22;49111;51.028;4.218;2022-09-21T08:52:51;12.50;99.90
62912;DHT22;49111;51.028;4.218;2022-09-21T08:55:19;12.60;99.90
62912;DHT22;49111;51.028;4.218;2022-09-21T08:57:45;12.70;99.90
62912;DHT22;49111;51.028;4.218;2022-09-21T09:00:16;12.80;99.90
62912;DHT22;49111;51.028;4.218;2022-09-21T09:03:06;12.80;99.90
62912;DHT22;49111;51.028;4.218;2022-09-21T09:08:31;13.00;99.90
62912;DHT22;49111;51.028;4.218;2022-09-21T09:11:13;13.20;99.90
62912;DHT22;49111;51.028;4.218;2022-09-21T09:21:45;13.50;99.90
62912;DHT22;49111;51.028;4.218;2022-09-21T09:27:21;13.60;99.90
62912;DHT22;49111;51.028;4.218;2022-09-21T09:32:38;13.70;99.90
62912;DHT22;49111;51.028;4.218;2022-09-21T09:35:32;13.70;99.90
62912;DHT22;49111;51.028;4.218;2022-09-21T09:38:23;13.80;99.90
62912;DHT22;49111;51.028;4.218;2022-09-21T09:49:58;14.20;99.90
62912;DHT22;49111;51.028;4.218;2022-09-21T09:52:27;14.40;99.90
62912;DHT22;49111;51.028;4.218;2022-09-21T09:54:53;14.50;99.90
62912;DHT22;49111;51.028;4.218;2022-09-21T09:57:31;14.70;99.90
62912;DHT22;49111;51.028;4.218;2022-09-21T10:00:04;14.70;99.90
62912;DHT22;49111;51.028;4.218;2022-09-21T10:02:54;14.80;99.90
62912;DHT22;49111;51.028;4.218;2022-09-21T10:05:31;14.90;99.90
62912;DHT22;49111;51.028;4.218;2022-09-21T10:07:58;14.90;99.90
62912;DHT22;49111;51.028;4.218;2022-09-21T10:10:35;15.00;99.90
62912;DHT22;49111;51.028;4.218;2022-09-21T10:15:53;15.20;99.90
62912;DHT22;49111;51.028;4.218;2022-09-21T10:18:21;15.20;99.90
62912;DHT22;49111;51.028;4.218;2022-09-21T10:20:55;15.20;99.90
62912;DHT22;49111;51.028;4.218;2022-09-21T10:23:22;15.20;99.90
62912;DHT22;49111;51.028;4.218;2022-09-21T10:25:57;15.20;99.90
62912;DHT22;49111;51.028;4.218;2022-09-21T10:28:23;15.30;99.90
62912;DHT22;49111;51.028;4.218;2022-09-21T10:30:49;15.50;99.90
62912;DHT22;49111;51.028;4.218;2022-09-21T10:33:31;15.50;99.90
62912;DHT22;49111;51.028;4.218;2022-09-21T10:35:57;15.70;99.90
62912;DHT22;49111;51.028;4.218;2022-09-21T10:38:25;15.70;99.90
62912;DHT22;49111;51.028;4.218;2022-09-21T10:40:54;15.80;99.90
62912;DHT22;49111;51.028;4.218;2022-09-21T10:43:41;15.90;99.90
62912;DHT22;49111;51.028;4.218;2022-09-21T10:46:09;16.20;99.90
62912;DHT22;49111;51.028;4.218;2022-09-21T10:48:35;16.40;99.90
62912;DHT22;49111;51.028;4.218;2022-09-21T10:51:02;16.60;99.00
62912;DHT22;49111;51.028;4.218;2022-09-21T10:53:33;16.80;99.30
62912;DHT22;49111;51.028;4.218;2022-09-21T10:58:37;17.10;98.50
62912;DHT22;49111;51.028;4.218;2022-09-21T11:01:21;17.20;99.50
62912;DHT22;49111;51.028;4.218;2022-09-21T11:06:36;17.30;97.90
62912;DHT22;49111;51.028;4.218;2022-09-21T11:09:13;17.20;96.50
62912;DHT22;49111;51.028;4.218;2022-09-21T11:14:52;17.00;96.40
62912;DHT22;49111;51.028;4.218;2022-09-21T11:17:02;17.00;97.30
62912;DHT22;49111;51.028;4.218;2022-09-21T11:19:51;17.00;97.50
62912;DHT22;49111;51.028;4.218;2022-09-21T11:28:04;16.70;98.10
62912;DHT22;49111;51.028;4.218;2022-09-21T11:31:12;16.70;98.50
62912;DHT22;49111;51.028;4.218;2022-09-21T11:53:49;18.90;91.70
62912;DHT22;49111;51.028;4.218;2022-09-21T12:07:43;19.10;90.50
62912;DHT22;49111;51.028;4.218;2022-09-21T12:10:17;19.20;89.10
62912;DHT22;49111;51.028;4.218;2022-09-21T12:13:02;19.20;90.30
62912;DHT22;49111;51.028;4.218;2022-09-21T12:18:22;19.20;90.00
62912;DHT22;49111;51.028;4.218;2022-09-21T12:21:09;19.40;89.20
62912;DHT22;49111;51.028;4.218;2022-09-21T12:24:32;19.40;88.40
62912;DHT22;49111;51.028;4.218;2022-09-21T12:26:37;19.50;87.10
62912;DHT22;49111;51.028;4.218;2022-09-21T12:29:21;19.50;85.70
62912;DHT22;49111;51.028;4.218;2022-09-21T12:32:12;19.50;85.00
62912;DHT22;49111;51.028;4.218;2022-09-21T12:34:48;19.30;85.50
62912;DHT22;49111;51.028;4.218;2022-09-21T12:37:20;19.30;85.20
62912;DHT22;49111;51.028;4.218;2022-09-21T12:42:42;19.30;85.00
62912;DHT22;49111;51.028;4.218;2022-09-21T12:45:32;19.30;86.00
62912;DHT22;49111;51.028;4.218;2022-09-21T12:50:57;19.40;83.80
62912;DHT22;49111;51.028;4.218;2022-09-21T12:53:28;19.60;82.30
62912;DHT22;49111;51.028;4.218;2022-09-21T12:56:05;19.70;84.70
62912;DHT22;49111;51.028;4.218;2022-09-21T13:01:29;19.70;82.30
62912;DHT22;49111;51.028;4.218;2022-09-21T13:09:29;19.50;83.40
62912;DHT22;49111;51.028;4.218;2022-09-21T13:12:02;19.20;83.70
62912;DHT22;49111;51.028;4.218;2022-09-21T13:14:33;19.10;86.10
62912;DHT22;49111;51.028;4.218;2022-09-21T13:17:02;19.00;88.20
62912;DHT22;49111;51.028;4.218;2022-09-21T13:19:32;19.00;86.80
62912;DHT22;49111;51.028;4.218;2022-09-21T13:22:34;18.80;87.20
62912;DHT22;49111;51.028;4.218;2022-09-21T13:25:17;18.70;85.20
62912;DHT22;49111;51.028;4.218;2022-09-21T13:28:15;18.70;88.30
62912;DHT22;49111;51.028;4.218;2022-09-21T13:33:37;18.80;84.30
62912;DHT22;49111;51.028;4.218;2022-09-21T13:36:33;18.80;87.10
62912;DHT22;49111;51.028;4.218;2022-09-21T13:39:15;18.70;86.30
62912;DHT22;49111;51.028;4.218;2022-09-21T13:41:42;18.70;88.50
62912;DHT22;49111;51.028;4.218;2022-09-21T13:44:42;18.60;89.10
62912;DHT22;49111;51.028;4.218;2022-09-21T13:47:08;18.60;88.80
62912;DHT22;49111;51.028;4.218;2022-09-21T13:49:45;18.60;89.70
62912;DHT22;49111;51.028;4.218;2022-09-21T13:57:20;18.70;86.40
62912;DHT22;49111;51.028;4.218;2022-09-21T14:07:58;19.40;80.00
62912;DHT22;49111;51.028;4.218;2022-09-21T14:10:26;19.40;81.60
62912;DHT22;49111;51.028;4.218;2022-09-21T14:12:54;19.50;78.60
62912;DHT22;49111;51.028;4.218;2022-09-21T14:20:34;20.20;81.90
62912;DHT22;49111;51.028;4.218;2022-09-21T14:25:58;20.60;80.90
62912;DHT22;49111;51.028;4.218;2022-09-21T14:28:37;20.80;78.50
62912;DHT22;49111;51.028;4.218;2022-09-21T14:31:07;20.90;79.60
62912;DHT22;49111;51.028;4.218;2022-09-21T14:33:53;21.20;80.00
62912;DHT22;49111;51.028;4.218;2022-09-21T14:36:32;21.40;77.90
62912;DHT22;49111;51.028;4.218;2022-09-21T14:39:04;21.50;78.30
62912;DHT22;49111;51.028;4.218;2022-09-21T14:41:43;21.50;78.10
62912;DHT22;49111;51.028;4.218;2022-09-21T14:44:21;21.60;77.20
62912;DHT22;49111;51.028;4.218;2022-09-21T14:52:34;21.60;74.50
62912;DHT22;49111;51.028;4.218;2022-09-21T14:58:15;21.50;77.20
62912;DHT22;49111;51.028;4.218;2022-09-21T15:00:46;21.40;76.90
62912;DHT22;49111;51.028;4.218;2022-09-21T15:12:15;21.30;77.80
62912;DHT22;49111;51.028;4.218;2022-09-21T15:15:22;21.00;76.90
62912;DHT22;49111;51.028;4.218;2022-09-21T15:17:58;20.90;78.60
62912;DHT22;49111;51.028;4.218;2022-09-21T15:20:26;20.90;79.10
62912;DHT22;49111;51.028;4.218;2022-09-21T15:22:59;20.80;77.10
62912;DHT22;49111;51.028;4.218;2022-09-21T15:25:31;20.70;77.00
62912;DHT22;49111;51.028;4.218;2022-09-21T15:27:57;20.80;78.10
62912;DHT22;49111;51.028;4.218;2022-09-21T15:30:30;21.10;80.10
62912;DHT22;49111;51.028;4.218;2022-09-21T15:33:01;21.10;78.40
62912;DHT22;49111;51.028;4.218;2022-09-21T15:35:29;21.20;77.80
62912;DHT22;49111;51.028;4.218;2022-09-21T15:37:58;21.20;78.40
62912;DHT22;49111;51.028;4.218;2022-09-21T15:40:35;21.20;77.80
62912;DHT22;49111;51.028;4.218;2022-09-21T15:46:05;20.90;75.70
62912;DHT22;49111;51.028;4.218;2022-09-21T15:48:34;20.50;76.90
62912;DHT22;49111;51.028;4.218;2022-09-21T15:51:28;20.20;80.90
62912;DHT22;49111;51.028;4.218;2022-09-21T15:53:58;20.20;81.60
62912;DHT22;49111;51.028;4.218;2022-09-21T15:56:29;20.00;83.30
62912;DHT22;49111;51.028;4.218;2022-09-21T15:59:00;19.80;82.80
62912;DHT22;49111;51.028;4.218;2022-09-21T16:01:38;19.70;85.20
62912;DHT22;49111;51.028;4.218;2022-09-21T16:04:10;19.60;86.80
62912;DHT22;49111;51.028;4.218;2022-09-21T16:06:39;19.50;88.00
62912;DHT22;49111;51.028;4.218;2022-09-21T16:11:52;19.50;89.20
62912;DHT22;49111;51.028;4.218;2022-09-21T16:14:18;19.40;89.50
62912;DHT22;49111;51.028;4.218;2022-09-21T16:17:26;19.50;90.50
62912;DHT22;49111;51.028;4.218;2022-09-21T16:22:36;19.50;89.50
62912;DHT22;49111;51.028;4.218;2022-09-21T16:25:22;19.70;88.00
62912;DHT22;49111;51.028;4.218;2022-09-21T16:28:01;19.80;87.00
62912;DHT22;49111;51.028;4.218;2022-09-21T16:30:52;19.90;88.20
62912;DHT22;49111;51.028;4.218;2022-09-21T16:33:39;20.00;89.20
62912;DHT22;49111;51.028;4.218;2022-09-21T16:38:57;20.10;88.80
62912;DHT22;49111;51.028;4.218;2022-09-21T16:43:57;19.90;87.00
62912;DHT22;49111;51.028;4.218;2022-09-21T16:46:25;19.80;87.40
62912;DHT22;49111;51.028;4.218;2022-09-21T16:48:52;19.60;89.00
62912;DHT22;49111;51.028;4.218;2022-09-21T16:51:20;19.50;89.70
62912;DHT22;49111;51.028;4.218;2022-09-21T16:53:50;19.30;90.30
62912;DHT22;49111;51.028;4.218;2022-09-21T16:56:16;19.10;90.50
62912;DHT22;49111;51.028;4.218;2022-09-21T16:58:42;18.90;90.70
62912;DHT22;49111;51.028;4.218;2022-09-21T17:01:11;18.70;90.80
62912;DHT22;49111;51.028;4.218;2022-09-21T17:03:38;18.60;91.30
62912;DHT22;49111;51.028;4.218;2022-09-21T17:06:17;18.40;91.70
62912;DHT22;49111;51.028;4.218;2022-09-21T17:08:44;18.30;92.00
62912;DHT22;49111;51.028;4.218;2022-09-21T17:11:14;18.10;92.00
62912;DHT22;49111;51.028;4.218;2022-09-21T17:13:47;18.00;91.90
62912;DHT22;49111;51.028;4.218;2022-09-21T17:16:14;17.90;92.20
62912;DHT22;49111;51.028;4.218;2022-09-21T17:18:47;17.80;92.50
62912;DHT22;49111;51.028;4.218;2022-09-21T17:21:13;17.70;92.60
62912;DHT22;49111;51.028;4.218;2022-09-21T17:23:40;17.60;92.90
62912;DHT22;49111;51.028;4.218;2022-09-21T17:26:24;17.50;93.00
62912;DHT22;49111;51.028;4.218;2022-09-21T17:28:50;17.30;93.40
62912;DHT22;49111;51.028;4.218;2022-09-21T17:31:23;17.20;93.60
62912;DHT22;49111;51.028;4.218;2022-09-21T17:33:49;17.10;93.70
62912;DHT22;49111;51.028;4.218;2022-09-21T17:36:16;17.10;93.70
62912;DHT22;49111;51.028;4.218;2022-09-21T17:38:43;17.00;93.90
62912;DHT22;49111;51.028;4.218;2022-09-21T17:41:29;16.90;94.10
62912;DHT22;49111;51.028;4.218;2022-09-21T17:44:15;16.80;94.50
62912;DHT22;49111;51.028;4.218;2022-09-21T17:46:57;16.70;94.60
62912;DHT22;49111;51.028;4.218;2022-09-21T17:49:24;16.60;94.90
62912;DHT22;49111;51.028;4.218;2022-09-21T17:51:50;16.50;95.00
62912;DHT22;49111;51.028;4.218;2022-09-21T17:54:35;16.40;95.10
62912;DHT22;49111;51.028;4.218;2022-09-21T18:00:02;16.20;95.40
62912;DHT22;49111;51.028;4.218;2022-09-21T18:02:31;16.10;95.60
62912;DHT22;49111;51.028;4.218;2022-09-21T18:05:01;16.00;95.70
62912;DHT22;49111;51.028;4.218;2022-09-21T18:07:28;16.00;95.90
62912;DHT22;49111;51.028;4.218;2022-09-21T18:09:54;15.90;95.90
62912;DHT22;49111;51.028;4.218;2022-09-21T18:12:29;15.80;96.10
62912;DHT22;49111;51.028;4.218;2022-09-21T18:18:08;15.70;96.20
62912;DHT22;49111;51.028;4.218;2022-09-21T18:26:40;15.40;96.80
62912;DHT22;49111;51.028;4.218;2022-09-21T18:29:07;15.30;97.00
62912;DHT22;49111;51.028;4.218;2022-09-21T18:43:03;15.10;97.90
62912;DHT22;49111;51.028;4.218;2022-09-21T18:45:41;15.00;98.20
62912;DHT22;49111;51.028;4.218;2022-09-21T18:51:20;14.90;98.40
62912;DHT22;49111;51.028;4.218;2022-09-21T18:53:53;14.90;98.50
62912;DHT22;49111;51.028;4.218;2022-09-21T18:56:22;14.80;98.60
62912;DHT22;49111;51.028;4.218;2022-09-21T18:58:48;14.80;98.70
62912;DHT22;49111;51.028;4.218;2022-09-21T19:01:15;14.80;98.70
62912;DHT22;49111;51.028;4.218;2022-09-21T19:03:42;14.70;98.70
62912;DHT22;49111;51.028;4.218;2022-09-21T19:06:39;14.70;99.00
62912;DHT22;49111;51.028;4.218;2022-09-21T19:18:10;14.50;99.30
62912;DHT22;49111;51.028;4.218;2022-09-21T19:31:47;14.30;99.90
62912;DHT22;49111;51.028;4.218;2022-09-21T19:34:15;14.30;99.90
62912;DHT22;49111;51.028;4.218;2022-09-21T19:36:42;14.20;99.90
62912;DHT22;49111;51.028;4.218;2022-09-21T19:39:09;14.20;99.90
62912;DHT22;49111;51.028;4.218;2022-09-21T19:44:40;14.10;99.90
62912;DHT22;49111;51.028;4.218;2022-09-21T19:47:26;14.00;99.90
62912;DHT22;49111;51.028;4.218;2022-09-21T19:50:05;13.90;99.90
62912;DHT22;49111;51.028;4.218;2022-09-21T19:52:36;14.00;99.90
62912;DHT22;49111;51.028;4.218;2022-09-21T19:55:02;13.90;99.90
62912;DHT22;49111;51.028;4.218;2022-09-21T19:57:47;13.90;99.90
62912;DHT22;49111;51.028;4.218;2022-09-21T20:00:31;13.80;99.90
62912;DHT22;49111;51.028;4.218;2022-09-21T20:03:02;13.80;99.90